Stena Germanica — SKPZ — position and weather

sailwx.info

Track history (hours):
 
Tides and Currents Weather Stations Pressure Air Temp Water Temp Dewpoint Dewpoint Depression Visibility Wind Speed Wind Dir Waves Ship Positions

Stena Germanica

Last reported at 2015-May-05 11:30 UTC. Time now 2015-May-05 13:16 UTC.
Position N 55°28' E 017°10'.

Length 176 m; draft 6.7 m.

Type: Passenger vessel. MMSI: 265292000.

Date/timePositionNaut miles runAvg speedWind from/ knotsBaromVisibWave heightAir tempDewpointWater temp
2015-May-05 11:30N 55°28' E 017°10'1415.3
2015-May-05 10:33N 55°36' E 016°48'1915.7
2015-May-05 09:21N 55°47' E 016°20'1315.7
2015-May-05 08:33N 55°53' E 016°01'1615.9
2015-May-05 07:33N 56°02' E 015°38'8 7.3
2015-May-05 06:31N 56°10' E 015°38'0 0.0
2015-May-05 05:28N 56°10' E 015°38'4 4.2
2015-May-05 04:33N 56°07' E 015°35'10514.6
2015-May-04 21:20N 55°07' E 018°09'1214.9
2015-May-04 20:33N 55°01' E 018°26'1514.6
2015-May-04 19:34N 54°50' E 018°44'1414.2
2015-May-04 18:33N 54°38' E 018°56'1413.5
2015-May-04 17:34N 54°32' E 018°35'3 2.8
2015-May-04 16:32N 54°33' E 018°30'0 0.0
2015-May-04 15:32N 54°33' E 018°30'0 0.0
2015-May-04 14:32N 54°33' E 018°30'0 0.0
2015-May-04 13:32N 54°33' E 018°30'0 0.0
2015-May-04 12:32N 54°33' E 018°30'0 0.0
2015-May-04 11:32N 54°33' E 018°30'0 0.0
2015-May-04 10:32N 54°33' E 018°30'0 0.0
2015-May-04 09:32N 54°33' E 018°30'0 0.0
2015-May-04 08:32N 54°33' E 018°30'0 0.0
2015-May-04 07:32N 54°33' E 018°30'2 1.9
2015-May-04 06:33N 54°32' E 018°33'1212.3
2015-May-04 05:34N 54°36' E 018°53'1312.6
2015-May-04 04:34N 54°48' E 018°46'1414.4
2015-May-04 03:34N 54°59' E 018°29'1414.4
2015-May-04 02:33N 55°07' E 018°08'1514.7
2015-May-04 01:33N 55°15' E 017°47'1514.8
2015-May-04 00:33N 55°23' E 017°25'1514.7
2015-May-03 23:33N 55°31' E 017°03'1614.7
2015-May-03 22:26N 55°40' E 016°39'1414.8
2015-May-03 21:31N 55°47' E 016°18'1414.7
2015-May-03 20:33N 55°55' E 015°57'1614.9
2015-May-03 19:30N 56°04' E 015°34'6 6.4
2015-May-03 18:32N 56°10' E 015°38'4 4.3
2015-May-03 17:33N 56°06' E 015°34'1815.0
2015-May-03 16:23N 55°54' E 015°58'1316.0
2015-May-03 15:33N 55°47' E 016°17'1716.0
2015-May-03 14:31N 55°39' E 016°43'3115.8
2015-May-03 12:31N 55°22' E 017°30'1716.2
2015-May-03 11:29N 55°12' E 017°54'1516.2
2015-May-03 10:33N 55°04' E 018°15'1616.1
2015-May-03 09:33N 54°54' E 018°38'1616.1
2015-May-03 08:33N 54°42' E 018°56'1313.5
2015-May-03 07:33N 54°32' E 018°41'6 5.9
2015-May-03 06:32N 54°33' E 018°30'0 0.0
2015-May-03 05:33N 54°33' E 018°30'8 8.0
2015-May-03 04:33N 54°32' E 018°44'1312.6
2015-May-03 03:33N 54°44' E 018°52'1616.2
2015-May-03 02:33N 54°56' E 018°33'1616.2
2015-May-03 01:34N 55°06' E 018°10'10715.3
2015-May-02 18:33N 56°09' E 015°37'1 0.6
2015-May-02 17:33N 56°10' E 015°38'11215.7
2015-May-02 10:25N 55°03' E 018°17'1517.0
2015-May-02 09:33N 54°55' E 018°38'1717.2
2015-May-02 08:33N 54°42' E 018°57'1515.5
2015-May-02 07:33N 54°32' E 018°37'4 3.9
2015-May-02 06:31N 54°33' E 018°30'0 0.0
2015-May-02 05:34N 54°33' E 018°30'8 8.1
2015-May-02 04:34N 54°32' E 018°44'1211.8
2015-May-02 03:34N 54°42' E 018°55'1414.0
2015-May-02 02:34N 54°53' E 018°39'1413.9
2015-May-02 01:31N 55°02' E 018°20'1513.9
2015-May-02 00:28N 55°10' E 017°58'9913.6
2015-May-01 17:11N 56°08' E 015°36'2 3.9
2015-May-01 16:33N 56°10' E 015°38'0 0.0
2015-May-01 15:33N 56°10' E 015°38'0 0.0
2015-May-01 14:33N 56°10' E 015°38'0 0.0
2015-May-01 13:18N 56°10' E 015°38'0 0.0
2015-May-01 12:12N 56°10' E 015°38'0 0.0
2015-May-01 11:24N 56°10' E 015°38'0 0.0
2015-May-01 07:27N 56°10' E 015°38'4 4.1
2015-May-01 06:33N 56°07' E 015°35'6018.1
2015-May-01 03:14N 55°31' E 017°01'1418.6
2015-May-01 02:28N 55°24' E 017°23'1818.7
2015-May-01 01:32N 55°15' E 017°49'1918.7
2015-May-01 00:30N 55°06' E 018°19'1212.3
2015-Apr-30 23:33N 54°59' E 018°35'3 3.5
2015-Apr-30 22:33N 54°55' E 018°36'1515.3
2015-Apr-30 21:33N 54°45' E 018°55'1413.7
2015-Apr-30 20:33N 54°32' E 018°48'1010.0
2015-Apr-30 19:33N 54°33' E 018°30'0 0.0
2015-Apr-30 18:34N 54°33' E 018°30'9 8.9
2015-Apr-30 17:33N 54°32' E 018°46'1514.6
2015-Apr-30 16:33N 54°47' E 018°48'1918.5
2015-Apr-30 15:33N 55°00' E 018°25'2018.5
2015-Apr-30 14:29N 55°11' E 017°56'5818.7
2015-Apr-30 11:23N 55°43' E 016°31'2118.4
2015-Apr-30 10:15N 55°54' E 016°00'2011.8
2015-Apr-30 08:33N 56°10' E 015°38'0 0.0
2015-Apr-30 07:33N 56°10' E 015°38'1 0.5
2015-Apr-30 06:33N 56°09' E 015°37'1311.9
2015-Apr-30 05:27N 55°58' E 015°49'1814.9
2015-Apr-30 04:17N 55°49' E 016°16'1114.9
2015-Apr-30 03:33N 55°42' E 016°31'2014.5
2015-Apr-30 02:09N 55°33' E 017°02'4514.7
2015-Apr-29 23:05N 55°07' E 018°07'814.6
2015-Apr-29 22:33N 55°02' E 018°18'1514.7
2015-Apr-29 21:34N 54°53' E 018°38'1514.7
2015-Apr-29 20:33N 54°43' E 018°57'1413.6
2015-Apr-29 19:34N 54°32' E 018°45'8 8.3
2015-Apr-29 18:33N 54°33' E 018°30'0 0.0
2015-Apr-29 17:33N 54°33' E 018°30'8 8.3
2015-Apr-29 16:34N 54°32' E 018°45'1413.6
2015-Apr-29 15:34N 54°46' E 018°50'1817.7
2015-Apr-29 14:33N 54°59' E 018°30'1817.8
2015-Apr-29 13:33N 55°09' E 018°03'10216.9
2015-Apr-29 07:31N 56°08' E 015°36'3 2.6
2015-Apr-29 06:31N 56°10' E 015°38'1 1.0
2015-Apr-29 05:34N 56°09' E 015°37'11316.0
2015-Apr-28 22:30N 55°03' E 018°18'1616.5
2015-Apr-28 21:33N 54°53' E 018°39'1616.5
2015-Apr-28 20:34N 54°40' E 018°57'1414.3
2015-Apr-28 19:34N 54°32' E 018°37'4 4.1
2015-Apr-28 18:33N 54°33' E 018°30'0 0.0
2015-Apr-28 17:33N 54°33' E 018°30'7 7.2
2015-Apr-28 16:34N 54°32' E 018°43'1313.0
2015-Apr-28 15:33N 54°44' E 018°52'1717.0
2015-Apr-28 14:33N 54°58' E 018°34'1716.9
2015-Apr-28 13:33N 55°07' E 018°09'1717.0
2015-Apr-28 12:33N 55°16' E 017°44'1716.9
2015-Apr-28 11:33N 55°25' E 017°19'7216.3
2015-Apr-28 07:06N 56°08' E 015°36'2 2.0
2015-Apr-28 06:09N 56°10' E 015°38'6110.6
2015-Apr-28 00:20N 55°31' E 017°02'4814.9
2015-Apr-27 21:09N 55°05' E 018°13'914.9
2015-Apr-27 20:34N 55°01' E 018°26'1514.5
2015-Apr-27 19:33N 54°50' E 018°43'1515.0
2015-Apr-27 18:34N 54°37' E 018°55'1212.4
2015-Apr-27 17:33N 54°32' E 018°35'3 3.1
2015-Apr-27 16:33N 54°33' E 018°30'0 0.0
2015-Apr-27 15:33N 54°33' E 018°30'0 0.0
2015-Apr-27 14:33N 54°33' E 018°30'0 0.0
2015-Apr-27 13:33N 54°33' E 018°30'0 0.0
2015-Apr-27 12:33N 54°33' E 018°30'0 0.0
2015-Apr-27 11:33N 54°33' E 018°30'0 0.0
2015-Apr-27 10:33N 54°33' E 018°30'0 0.0
2015-Apr-27 09:33N 54°33' E 018°30'0 0.0
2015-Apr-27 08:33N 54°33' E 018°30'0 0.0
2015-Apr-27 07:33N 54°33' E 018°30'1 1.1
2015-Apr-27 06:33N 54°32' E 018°32'1212.5
2015-Apr-27 05:34N 54°36' E 018°52'1212.4
2015-Apr-27 04:33N 54°48' E 018°46'1514.9
2015-Apr-27 03:33N 54°59' E 018°29'1514.9
2015-Apr-27 02:33N 55°07' E 018°07'1514.9
2015-Apr-27 01:33N 55°16' E 017°46'21 1.4
2015-Apr-26 10:29N 55°04' E 018°17'1516.1
2015-Apr-26 09:33N 54°55' E 018°37'1716.8
2015-Apr-26 08:33N 54°42' E 018°56'1313.1
2015-Apr-26 07:34N 54°32' E 018°42'7 6.5
2015-Apr-26 06:32N 54°33' E 018°30'0 0.0
2015-Apr-26 05:32N 54°33' E 018°30'7 7.5
2015-Apr-26 04:33N 54°32' E 018°43'1312.8
2015-Apr-26 03:33N 54°44' E 018°53'1716.8
2015-Apr-26 02:33N 54°56' E 018°34'1716.7
2015-Apr-26 01:33N 55°06' E 018°10'9510.2
2015-Apr-25 16:14N 55°58' E 015°51'  
Track history (hours):
 
Tides and Currents Weather Stations Pressure Air Temp Water Temp Dewpoint Dewpoint Depression Visibility Wind Speed Wind Dir Waves Ship Positions

Stena Germanica

Last reported at 2015-May-05 11:30 UTC. Time now 2015-May-05 13:16 UTC.
Position N 55°28' E 017°10'.

Length 176 m; draft 6.7 m.

Type: Passenger vessel. MMSI: 265292000.

Date/timePositionNaut miles runAvg speedWind from/ knotsBaromVisibWave heightAir tempDewpointWater temp
2015-May-05 11:30N 55°28' E 017°10'1415.3
2015-May-05 10:33N 55°36' E 016°48'1915.7
2015-May-05 09:21N 55°47' E 016°20'1315.7
2015-May-05 08:33N 55°53' E 016°01'1615.9
2015-May-05 07:33N 56°02' E 015°38'8 7.3
2015-May-05 06:31N 56°10' E 015°38'0 0.0
2015-May-05 05:28N 56°10' E 015°38'4 4.2
2015-May-05 04:33N 56°07' E 015°35'10514.6
2015-May-04 21:20N 55°07' E 018°09'1214.9
2015-May-04 20:33N 55°01' E 018°26'1514.6
2015-May-04 19:34N 54°50' E 018°44'1414.2
2015-May-04 18:33N 54°38' E 018°56'1413.5
2015-May-04 17:34N 54°32' E 018°35'3 2.8
2015-May-04 16:32N 54°33' E 018°30'0 0.0
2015-May-04 15:32N 54°33' E 018°30'0 0.0
2015-May-04 14:32N 54°33' E 018°30'0 0.0
2015-May-04 13:32N 54°33' E 018°30'0 0.0
2015-May-04 12:32N 54°33' E 018°30'0 0.0
2015-May-04 11:32N 54°33' E 018°30'0 0.0
2015-May-04 10:32N 54°33' E 018°30'0 0.0
2015-May-04 09:32N 54°33' E 018°30'0 0.0
2015-May-04 08:32N 54°33' E 018°30'0 0.0
2015-May-04 07:32N 54°33' E 018°30'2 1.9
2015-May-04 06:33N 54°32' E 018°33'1212.3
2015-May-04 05:34N 54°36' E 018°53'1312.6
2015-May-04 04:34N 54°48' E 018°46'1414.4
2015-May-04 03:34N 54°59' E 018°29'1414.4
2015-May-04 02:33N 55°07' E 018°08'1514.7
2015-May-04 01:33N 55°15' E 017°47'1514.8
2015-May-04 00:33N 55°23' E 017°25'1514.7
2015-May-03 23:33N 55°31' E 017°03'1614.7
2015-May-03 22:26N 55°40' E 016°39'1414.8
2015-May-03 21:31N 55°47' E 016°18'1414.7
2015-May-03 20:33N 55°55' E 015°57'1614.9
2015-May-03 19:30N 56°04' E 015°34'6 6.4
2015-May-03 18:32N 56°10' E 015°38'4 4.3
2015-May-03 17:33N 56°06' E 015°34'1815.0
2015-May-03 16:23N 55°54' E 015°58'1316.0
2015-May-03 15:33N 55°47' E 016°17'1716.0
2015-May-03 14:31N 55°39' E 016°43'3115.8
2015-May-03 12:31N 55°22' E 017°30'1716.2
2015-May-03 11:29N 55°12' E 017°54'1516.2
2015-May-03 10:33N 55°04' E 018°15'1616.1
2015-May-03 09:33N 54°54' E 018°38'1616.1
2015-May-03 08:33N 54°42' E 018°56'1313.5
2015-May-03 07:33N 54°32' E 018°41'6 5.9
2015-May-03 06:32N 54°33' E 018°30'0 0.0
2015-May-03 05:33N 54°33' E 018°30'8 8.0
2015-May-03 04:33N 54°32' E 018°44'1312.6
2015-May-03 03:33N 54°44' E 018°52'1616.2
2015-May-03 02:33N 54°56' E 018°33'1616.2
2015-May-03 01:34N 55°06' E 018°10'10715.3
2015-May-02 18:33N 56°09' E 015°37'1 0.6
2015-May-02 17:33N 56°10' E 015°38'11215.7
2015-May-02 10:25N 55°03' E 018°17'1517.0
2015-May-02 09:33N 54°55' E 018°38'1717.2
2015-May-02 08:33N 54°42' E 018°57'1515.5
2015-May-02 07:33N 54°32' E 018°37'4 3.9
2015-May-02 06:31N 54°33' E 018°30'0 0.0
2015-May-02 05:34N 54°33' E 018°30'8 8.1
2015-May-02 04:34N 54°32' E 018°44'1211.8
2015-May-02 03:34N 54°42' E 018°55'1414.0
2015-May-02 02:34N 54°53' E 018°39'1413.9
2015-May-02 01:31N 55°02' E 018°20'1513.9
2015-May-02 00:28N 55°10' E 017°58'9913.6
2015-May-01 17:11N 56°08' E 015°36'2 3.9
2015-May-01 16:33N 56°10' E 015°38'0 0.0
2015-May-01 15:33N 56°10' E 015°38'0 0.0
2015-May-01 14:33N 56°10' E 015°38'0 0.0
2015-May-01 13:18N 56°10' E 015°38'0 0.0
2015-May-01 12:12N 56°10' E 015°38'0 0.0
2015-May-01 11:24N 56°10' E 015°38'0 0.0
2015-May-01 07:27N 56°10' E 015°38'4 4.1
2015-May-01 06:33N 56°07' E 015°35'6018.1
2015-May-01 03:14N 55°31' E 017°01'1418.6
2015-May-01 02:28N 55°24' E 017°23'1818.7
2015-May-01 01:32N 55°15' E 017°49'1918.7
2015-May-01 00:30N 55°06' E 018°19'1212.3
2015-Apr-30 23:33N 54°59' E 018°35'3 3.5
2015-Apr-30 22:33N 54°55' E 018°36'1515.3
2015-Apr-30 21:33N 54°45' E 018°55'1413.7
2015-Apr-30 20:33N 54°32' E 018°48'1010.0
2015-Apr-30 19:33N 54°33' E 018°30'0 0.0
2015-Apr-30 18:34N 54°33' E 018°30'9 8.9
2015-Apr-30 17:33N 54°32' E 018°46'1514.6
2015-Apr-30 16:33N 54°47' E 018°48'1918.5
2015-Apr-30 15:33N 55°00' E 018°25'2018.5
2015-Apr-30 14:29N 55°11' E 017°56'5818.7
2015-Apr-30 11:23N 55°43' E 016°31'2118.4
2015-Apr-30 10:15N 55°54' E 016°00'2011.8
2015-Apr-30 08:33N 56°10' E 015°38'0 0.0
2015-Apr-30 07:33N 56°10' E 015°38'1 0.5
2015-Apr-30 06:33N 56°09' E 015°37'1311.9
2015-Apr-30 05:27N 55°58' E 015°49'1814.9
2015-Apr-30 04:17N 55°49' E 016°16'1114.9
2015-Apr-30 03:33N 55°42' E 016°31'2014.5
2015-Apr-30 02:09N 55°33' E 017°02'4514.7
2015-Apr-29 23:05N 55°07' E 018°07'814.6
2015-Apr-29 22:33N 55°02' E 018°18'1514.7
2015-Apr-29 21:34N 54°53' E 018°38'1514.7
2015-Apr-29 20:33N 54°43' E 018°57'1413.6
2015-Apr-29 19:34N 54°32' E 018°45'8 8.3
2015-Apr-29 18:33N 54°33' E 018°30'0 0.0
2015-Apr-29 17:33N 54°33' E 018°30'8 8.3
2015-Apr-29 16:34N 54°32' E 018°45'1413.6
2015-Apr-29 15:34N 54°46' E 018°50'1817.7
2015-Apr-29 14:33N 54°59' E 018°30'1817.8
2015-Apr-29 13:33N 55°09' E 018°03'10216.9
2015-Apr-29 07:31N 56°08' E 015°36'3 2.6
2015-Apr-29 06:31N 56°10' E 015°38'1 1.0
2015-Apr-29 05:34N 56°09' E 015°37'11316.0
2015-Apr-28 22:30N 55°03' E 018°18'1616.5
2015-Apr-28 21:33N 54°53' E 018°39'1616.5
2015-Apr-28 20:34N 54°40' E 018°57'1414.3
2015-Apr-28 19:34N 54°32' E 018°37'4 4.1
2015-Apr-28 18:33N 54°33' E 018°30'0 0.0
2015-Apr-28 17:33N 54°33' E 018°30'7 7.2
2015-Apr-28 16:34N 54°32' E 018°43'1313.0
2015-Apr-28 15:33N 54°44' E 018°52'1717.0
2015-Apr-28 14:33N 54°58' E 018°34'1716.9
2015-Apr-28 13:33N 55°07' E 018°09'1717.0
2015-Apr-28 12:33N 55°16' E 017°44'1716.9
2015-Apr-28 11:33N 55°25' E 017°19'7216.3
2015-Apr-28 07:06N 56°08' E 015°36'2 2.0
2015-Apr-28 06:09N 56°10' E 015°38'6110.6
2015-Apr-28 00:20N 55°31' E 017°02'4814.9
2015-Apr-27 21:09N 55°05' E 018°13'914.9
2015-Apr-27 20:34N 55°01' E 018°26'1514.5
2015-Apr-27 19:33N 54°50' E 018°43'1515.0
2015-Apr-27 18:34N 54°37' E 018°55'1212.4
2015-Apr-27 17:33N 54°32' E 018°35'3 3.1
2015-Apr-27 16:33N 54°33' E 018°30'0 0.0
2015-Apr-27 15:33N 54°33' E 018°30'0 0.0
2015-Apr-27 14:33N 54°33' E 018°30'0 0.0
2015-Apr-27 13:33N 54°33' E 018°30'0 0.0
2015-Apr-27 12:33N 54°33' E 018°30'0 0.0
2015-Apr-27 11:33N 54°33' E 018°30'0 0.0
2015-Apr-27 10:33N 54°33' E 018°30'0 0.0
2015-Apr-27 09:33N 54°33' E 018°30'0 0.0
2015-Apr-27 08:33N 54°33' E 018°30'0 0.0
2015-Apr-27 07:33N 54°33' E 018°30'1 1.1
2015-Apr-27 06:33N 54°32' E 018°32'1212.5
2015-Apr-27 05:34N 54°36' E 018°52'1212.4
2015-Apr-27 04:33N 54°48' E 018°46'1514.9
2015-Apr-27 03:33N 54°59' E 018°29'1514.9
2015-Apr-27 02:33N 55°07' E 018°07'1514.9
2015-Apr-27 01:33N 55°16' E 017°46'21 1.4
2015-Apr-26 10:29N 55°04' E 018°17'1516.1
2015-Apr-26 09:33N 54°55' E 018°37'1716.8
2015-Apr-26 08:33N 54°42' E 018°56'1313.1
2015-Apr-26 07:34N 54°32' E 018°42'7 6.5
2015-Apr-26 06:32N 54°33' E 018°30'0 0.0
2015-Apr-26 05:32N 54°33' E 018°30'7 7.5
2015-Apr-26 04:33N 54°32' E 018°43'1312.8
2015-Apr-26 03:33N 54°44' E 018°53'1716.8
2015-Apr-26 02:33N 54°56' E 018°34'1716.7
2015-Apr-26 01:33N 55°06' E 018°10'9510.2
2015-Apr-25 16:14N 55°58' E 015°51'  

Dump ship's entire track history